sensor_id;sensor_type;location;lat;lon;timestamp;pressure;altitude;pressure_sealevel;temperature;humidity
19112;BME280;9688;51.906;8.376;2024-03-06T00:09:36;100897.22;;;8.40;100.00
19112;BME280;9688;51.906;8.376;2024-03-06T00:12:22;100904.31;;;8.35;100.00
19112;BME280;9688;51.906;8.376;2024-03-06T00:15:08;100906.03;;;8.38;100.00
19112;BME280;9688;51.906;8.376;2024-03-06T00:17:53;100903.28;;;8.42;100.00
19112;BME280;9688;51.906;8.376;2024-03-06T00:20:38;100910.31;;;8.43;100.00
19112;BME280;9688;51.906;8.376;2024-03-06T00:23:26;100919.06;;;8.44;100.00
19112;BME280;9688;51.906;8.376;2024-03-06T00:26:11;100920.06;;;8.40;100.00
19112;BME280;9688;51.906;8.376;2024-03-06T00:28:58;100917.41;;;8.38;100.00
19112;BME280;9688;51.906;8.376;2024-03-06T00:31:43;100919.16;;;8.41;100.00
19112;BME280;9688;51.906;8.376;2024-03-06T00:34:29;100925.25;;;8.43;100.00
19112;BME280;9688;51.906;8.376;2024-03-06T00:37:16;100926.06;;;8.45;100.00
19112;BME280;9688;51.906;8.376;2024-03-06T00:40:01;100927.84;;;8.44;100.00
19112;BME280;9688;51.906;8.376;2024-03-06T00:42:46;100926.03;;;8.46;100.00
19112;BME280;9688;51.906;8.376;2024-03-06T00:45:33;100926.91;;;8.47;100.00
19112;BME280;9688;51.906;8.376;2024-03-06T00:48:18;100939.22;;;8.46;100.00
19112;BME280;9688;51.906;8.376;2024-03-06T00:51:04;100944.44;;;8.48;100.00
19112;BME280;9688;51.906;8.376;2024-03-06T00:53:50;100936.59;;;8.45;100.00
19112;BME280;9688;51.906;8.376;2024-03-06T00:56:37;100949.91;;;8.40;100.00
19112;BME280;9688;51.906;8.376;2024-03-06T00:59:23;100949.91;;;8.39;100.00
19112;BME280;9688;51.906;8.376;2024-03-06T01:02:09;100948.16;;;8.39;100.00
19112;BME280;9688;51.906;8.376;2024-03-06T01:04:54;100949.91;;;8.39;100.00
19112;BME280;9688;51.906;8.376;2024-03-06T01:07:39;100961.34;;;8.38;100.00
19112;BME280;9688;51.906;8.376;2024-03-06T01:10:25;100957.88;;;8.36;100.00
19112;BME280;9688;51.906;8.376;2024-03-06T01:13:10;100957.88;;;8.36;100.00
19112;BME280;9688;51.906;8.376;2024-03-06T01:15:55;100954.47;;;8.31;100.00
19112;BME280;9688;51.906;8.376;2024-03-06T01:18:42;100965.94;;;8.28;100.00
19112;BME280;9688;51.906;8.376;2024-03-06T01:21:27;100958.94;;;8.29;100.00
19112;BME280;9688;51.906;8.376;2024-03-06T01:24:13;100958.03;;;8.30;100.00
19112;BME280;9688;51.906;8.376;2024-03-06T01:26:58;100965.00;;;8.32;100.00
19112;BME280;9688;51.906;8.376;2024-03-06T01:29:46;100963.22;;;8.33;100.00
19112;BME280;9688;51.906;8.376;2024-03-06T01:32:31;100964.13;;;8.32;100.00
19112;BME280;9688;51.906;8.376;2024-03-06T01:35:18;100963.19;;;8.34;100.00
19112;BME280;9688;51.906;8.376;2024-03-06T01:38:04;100971.91;;;8.36;100.00
19112;BME280;9688;51.906;8.376;2024-03-06T01:40:49;100967.47;;;8.40;100.00
19112;BME280;9688;51.906;8.376;2024-03-06T01:43:37;100971.84;;;8.39;100.00
19112;BME280;9688;51.906;8.376;2024-03-06T01:46:23;100977.94;;;8.43;100.00
19112;BME280;9688;51.906;8.376;2024-03-06T01:49:08;100974.38;;;8.45;100.00
19112;BME280;9688;51.906;8.376;2024-03-06T01:51:56;100978.75;;;8.45;100.00
19112;BME280;9688;51.906;8.376;2024-03-06T01:54:44;100975.22;;;8.46;100.00
19112;BME280;9688;51.906;8.376;2024-03-06T01:57:31;100978.66;;;8.49;100.00
19112;BME280;9688;51.906;8.376;2024-03-06T02:00:19;100987.38;;;8.52;100.00
19112;BME280;9688;51.906;8.376;2024-03-06T02:03:05;100985.84;;;8.43;100.00
19112;BME280;9688;51.906;8.376;2024-03-06T02:05:51;100987.59;;;8.42;100.00
19112;BME280;9688;51.906;8.376;2024-03-06T02:08:39;100993.66;;;8.46;100.00
19112;BME280;9688;51.906;8.376;2024-03-06T02:11:24;100997.16;;;8.46;100.00
19112;BME280;9688;51.906;8.376;2024-03-06T02:14:09;101004.13;;;8.49;100.00
19112;BME280;9688;51.906;8.376;2024-03-06T02:16:55;100997.94;;;8.52;100.00
19112;BME280;9688;51.906;8.376;2024-03-06T02:19:41;100997.88;;;8.53;100.00
19112;BME280;9688;51.906;8.376;2024-03-06T02:22:28;100999.66;;;8.53;100.00
19112;BME280;9688;51.906;8.376;2024-03-06T02:25:13;100996.16;;;8.52;100.00
19112;BME280;9688;51.906;8.376;2024-03-06T02:28:00;100992.53;;;8.56;100.00
19112;BME280;9688;51.906;8.376;2024-03-06T02:30:45;101002.09;;;8.60;100.00
19112;BME280;9688;51.906;8.376;2024-03-06T02:33:34;100995.91;;;8.61;100.00
19112;BME280;9688;51.906;8.376;2024-03-06T02:36:19;100997.69;;;8.61;100.00
19112;BME280;9688;51.906;8.376;2024-03-06T02:39:07;101001.25;;;8.60;100.00
19112;BME280;9688;51.906;8.376;2024-03-06T02:41:53;100997.63;;;8.64;100.00
19112;BME280;9688;51.906;8.376;2024-03-06T02:44:38;100997.53;;;8.68;100.00
19112;BME280;9688;51.906;8.376;2024-03-06T02:47:23;101008.91;;;8.70;100.00
19112;BME280;9688;51.906;8.376;2024-03-06T02:50:08;100998.22;;;8.75;100.00
19112;BME280;9688;51.906;8.376;2024-03-06T02:52:54;100996.44;;;8.76;100.00
19112;BME280;9688;51.906;8.376;2024-03-06T02:55:41;101003.47;;;8.77;100.00
19112;BME280;9688;51.906;8.376;2024-03-06T02:58:26;101002.63;;;8.75;100.00
19112;BME280;9688;51.906;8.376;2024-03-06T03:01:15;101017.66;;;8.71;100.00
19112;BME280;9688;51.906;8.376;2024-03-06T03:04:01;101004.50;;;8.69;100.00
19112;BME280;9688;51.906;8.376;2024-03-06T03:06:46;101008.97;;;8.67;100.00
19112;BME280;9688;51.906;8.376;2024-03-06T03:09:32;101018.59;;;8.68;100.00
19112;BME280;9688;51.906;8.376;2024-03-06T03:12:19;101015.13;;;8.66;100.00
19112;BME280;9688;51.906;8.376;2024-03-06T03:15:05;101016.06;;;8.64;100.00
19112;BME280;9688;51.906;8.376;2024-03-06T03:17:50;101017.75;;;8.66;100.00
19112;BME280;9688;51.906;8.376;2024-03-06T03:20:36;101019.53;;;8.67;100.00
19112;BME280;9688;51.906;8.376;2024-03-06T03:23:21;101021.19;;;8.70;100.00
19112;BME280;9688;51.906;8.376;2024-03-06T03:26:07;101019.38;;;8.74;100.00
19112;BME280;9688;51.906;8.376;2024-03-06T03:28:55;101023.00;;;8.68;100.00
19112;BME280;9688;51.906;8.376;2024-03-06T03:31:41;101023.97;;;8.64;100.00
19112;BME280;9688;51.906;8.376;2024-03-06T03:34:27;101028.38;;;8.63;100.00
19112;BME280;9688;51.906;8.376;2024-03-06T03:37:13;101027.47;;;8.64;100.00
19112;BME280;9688;51.906;8.376;2024-03-06T03:39:58;101029.22;;;8.65;100.00
19112;BME280;9688;51.906;8.376;2024-03-06T03:42:43;101031.00;;;8.65;100.00
19112;BME280;9688;51.906;8.376;2024-03-06T03:45:30;101035.44;;;8.63;100.00
19112;BME280;9688;51.906;8.376;2024-03-06T03:48:15;101031.94;;;8.62;100.00
19112;BME280;9688;51.906;8.376;2024-03-06T03:51:00;101039.78;;;8.64;100.00
19112;BME280;9688;51.906;8.376;2024-03-06T03:53:46;101039.94;;;8.58;100.00
19112;BME280;9688;51.906;8.376;2024-03-06T03:56:35;101036.72;;;8.45;100.00
19112;BME280;9688;51.906;8.376;2024-03-06T03:59:20;101035.13;;;8.36;100.00
19112;BME280;9688;51.906;8.376;2024-03-06T04:02:08;101039.50;;;8.37;100.00
19112;BME280;9688;51.906;8.376;2024-03-06T04:04:53;101043.88;;;8.37;100.00
19112;BME280;9688;51.906;8.376;2024-03-06T04:07:38;101047.41;;;8.37;100.00
19112;BME280;9688;51.906;8.376;2024-03-06T04:10:24;101043.88;;;8.37;100.00
19112;BME280;9688;51.906;8.376;2024-03-06T04:13:09;101040.38;;;8.38;100.00
19112;BME280;9688;51.906;8.376;2024-03-06T04:15:54;101045.59;;;8.41;100.00
19112;BME280;9688;51.906;8.376;2024-03-06T04:18:41;101051.63;;;8.46;100.00
19112;BME280;9688;51.906;8.376;2024-03-06T04:21:26;101049.75;;;8.51;100.00
19112;BME280;9688;51.906;8.376;2024-03-06T04:24:11;101053.13;;;8.56;100.00
19112;BME280;9688;51.906;8.376;2024-03-06T04:26:57;101062.72;;;8.60;100.00
19112;BME280;9688;51.906;8.376;2024-03-06T04:29:42;101058.22;;;8.64;100.00
19112;BME280;9688;51.906;8.376;2024-03-06T04:32:27;101056.34;;;8.69;100.00
19112;BME280;9688;51.906;8.376;2024-03-06T04:35:13;101061.56;;;8.72;100.00
19112;BME280;9688;51.906;8.376;2024-03-06T04:37:59;101072.03;;;8.75;100.00
19112;BME280;9688;51.906;8.376;2024-03-06T04:40:47;101065.97;;;8.71;100.00
19112;BME280;9688;51.906;8.376;2024-03-06T04:43:32;101067.75;;;8.71;100.00
19112;BME280;9688;51.906;8.376;2024-03-06T04:46:18;101072.88;;;8.76;100.00
19112;BME280;9688;51.906;8.376;2024-03-06T04:49:03;101073.72;;;8.78;100.00
19112;BME280;9688;51.906;8.376;2024-03-06T04:51:50;101078.03;;;8.82;100.00
19112;BME280;9688;51.906;8.376;2024-03-06T04:54:35;101088.50;;;8.85;100.00
19112;BME280;9688;51.906;8.376;2024-03-06T04:57:20;101084.13;;;8.84;100.00
19112;BME280;9688;51.906;8.376;2024-03-06T05:00:06;101089.44;;;8.82;100.00
19112;BME280;9688;51.906;8.376;2024-03-06T05:02:52;101098.19;;;8.84;100.00
19112;BME280;9688;51.906;8.376;2024-03-06T05:05:38;101099.91;;;8.85;100.00
19112;BME280;9688;51.906;8.376;2024-03-06T05:08:25;101095.72;;;8.77;100.00
19112;BME280;9688;51.906;8.376;2024-03-06T05:11:10;101109.06;;;8.70;100.00
19112;BME280;9688;51.906;8.376;2024-03-06T05:13:57;101112.56;;;8.69;100.00
19112;BME280;9688;51.906;8.376;2024-03-06T05:16:43;101103.72;;;8.72;100.00
19112;BME280;9688;51.906;8.376;2024-03-06T05:19:28;101115.06;;;8.76;100.00
19112;BME280;9688;51.906;8.376;2024-03-06T05:22:16;101116.75;;;8.78;100.00
19112;BME280;9688;51.906;8.376;2024-03-06T05:25:03;101120.22;;;8.80;100.00
19112;BME280;9688;51.906;8.376;2024-03-06T05:27:49;101115.72;;;8.87;100.00
19112;BME280;9688;51.906;8.376;2024-03-06T05:30:34;101120.91;;;8.90;100.00
19112;BME280;9688;51.906;8.376;2024-03-06T05:33:19;101124.41;;;8.89;100.00
19112;BME280;9688;51.906;8.376;2024-03-06T05:36:06;101127.97;;;8.88;100.00
19112;BME280;9688;51.906;8.376;2024-03-06T05:38:51;101128.81;;;8.90;100.00
19112;BME280;9688;51.906;8.376;2024-03-06T05:41:38;101132.22;;;8.93;100.00
19112;BME280;9688;51.906;8.376;2024-03-06T05:44:24;101140.97;;;8.96;100.00
19112;BME280;9688;51.906;8.376;2024-03-06T05:47:09;101143.69;;;8.92;100.00
19112;BME280;9688;51.906;8.376;2024-03-06T05:49:54;101145.44;;;8.92;100.00
19112;BME280;9688;51.906;8.376;2024-03-06T05:52:39;101147.22;;;8.91;100.00
19112;BME280;9688;51.906;8.376;2024-03-06T05:55:25;101149.84;;;8.93;100.00
19112;BME280;9688;51.906;8.376;2024-03-06T05:58:11;101161.19;;;8.95;100.00
19112;BME280;9688;51.906;8.376;2024-03-06T06:00:57;101162.09;;;8.96;100.00
19112;BME280;9688;51.906;8.376;2024-03-06T06:03:42;101160.44;;;8.90;100.00
19112;BME280;9688;51.906;8.376;2024-03-06T06:06:27;101162.31;;;8.85;100.00
19112;BME280;9688;51.906;8.376;2024-03-06T06:09:14;101169.31;;;8.86;100.00
19112;BME280;9688;51.906;8.376;2024-03-06T06:12:01;101175.44;;;8.86;100.00
19112;BME280;9688;51.906;8.376;2024-03-06T06:14:48;101179.84;;;8.86;100.00
19112;BME280;9688;51.906;8.376;2024-03-06T06:17:35;101178.16;;;8.83;100.00
19112;BME280;9688;51.906;8.376;2024-03-06T06:20:23;101182.63;;;8.80;100.00
19112;BME280;9688;51.906;8.376;2024-03-06T06:23:08;101187.00;;;8.81;100.00
19112;BME280;9688;51.906;8.376;2024-03-06T06:25:54;101186.97;;;8.82;100.00
19112;BME280;9688;51.906;8.376;2024-03-06T06:28:40;101186.97;;;8.82;100.00
19112;BME280;9688;51.906;8.376;2024-03-06T06:31:27;101193.13;;;8.83;100.00
19112;BME280;9688;51.906;8.376;2024-03-06T06:34:12;101206.22;;;8.87;100.00
19112;BME280;9688;51.906;8.376;2024-03-06T06:36:57;101202.59;;;8.91;100.00
19112;BME280;9688;51.906;8.376;2024-03-06T06:39:43;101211.34;;;8.93;100.00
19112;BME280;9688;51.906;8.376;2024-03-06T06:42:29;101207.75;;;8.96;100.00
19112;BME280;9688;51.906;8.376;2024-03-06T06:45:15;101215.59;;;8.99;100.00
19112;BME280;9688;51.906;8.376;2024-03-06T06:48:02;101221.72;;;9.01;100.00
19112;BME280;9688;51.906;8.376;2024-03-06T06:50:47;101223.66;;;8.93;100.00
19112;BME280;9688;51.906;8.376;2024-03-06T06:53:32;101229.00;;;8.90;100.00
19112;BME280;9688;51.906;8.376;2024-03-06T06:56:18;101234.22;;;8.91;100.00
19112;BME280;9688;51.906;8.376;2024-03-06T06:59:03;101239.50;;;8.91;100.00
19112;BME280;9688;51.906;8.376;2024-03-06T07:01:48;101233.38;;;8.91;100.00
19112;BME280;9688;51.906;8.376;2024-03-06T07:04:35;101235.00;;;8.95;100.00
19112;BME280;9688;51.906;8.376;2024-03-06T07:07:20;101245.47;;;9.00;100.00
19112;BME280;9688;51.906;8.376;2024-03-06T07:10:06;101244.59;;;9.01;100.00
19112;BME280;9688;51.906;8.376;2024-03-06T07:12:52;101249.81;;;9.04;100.00
19112;BME280;9688;51.906;8.376;2024-03-06T07:15:37;101247.94;;;9.07;100.00
19112;BME280;9688;51.906;8.376;2024-03-06T07:18:23;101256.66;;;9.11;100.00
19112;BME280;9688;51.906;8.376;2024-03-06T07:21:09;101256.56;;;9.15;100.00
19112;BME280;9688;51.906;8.376;2024-03-06T07:23:55;101257.44;;;9.16;100.00
19112;BME280;9688;51.906;8.376;2024-03-06T07:26:40;101271.59;;;9.12;100.00
19112;BME280;9688;51.906;8.376;2024-03-06T07:29:25;101269.00;;;9.09;100.00
19112;BME280;9688;51.906;8.376;2024-03-06T07:32:10;101269.84;;;9.11;100.00
19112;BME280;9688;51.906;8.376;2024-03-06T07:34:57;101274.19;;;9.13;100.00
19112;BME280;9688;51.906;8.376;2024-03-06T07:37:45;101270.63;;;9.16;100.00
19112;BME280;9688;51.906;8.376;2024-03-06T07:40:31;101288.06;;;9.22;100.00
19112;BME280;9688;51.906;8.376;2024-03-06T07:43:16;101283.59;;;9.25;100.00
19112;BME280;9688;51.906;8.376;2024-03-06T07:46:02;101287.06;;;9.29;100.00
19112;BME280;9688;51.906;8.376;2024-03-06T07:48:47;101292.34;;;9.27;100.00
19112;BME280;9688;51.906;8.376;2024-03-06T07:51:33;101294.13;;;9.27;100.00
19112;BME280;9688;51.906;8.376;2024-03-06T07:54:20;101302.81;;;9.32;100.00
19112;BME280;9688;51.906;8.376;2024-03-06T07:57:06;101297.47;;;9.35;100.00
19112;BME280;9688;51.906;8.376;2024-03-06T07:59:53;101298.22;;;9.40;100.00
19112;BME280;9688;51.906;8.376;2024-03-06T08:02:39;101310.50;;;9.43;100.00
19112;BME280;9688;51.906;8.376;2024-03-06T08:05:27;101304.31;;;9.42;100.00
19112;BME280;9688;51.906;8.376;2024-03-06T08:08:13;101315.75;;;9.43;100.00
19112;BME280;9688;51.906;8.376;2024-03-06T08:11:00;101311.28;;;9.45;100.00
19112;BME280;9688;51.906;8.376;2024-03-06T08:13:45;101319.16;;;9.48;100.00
19112;BME280;9688;51.906;8.376;2024-03-06T08:16:30;101326.03;;;9.55;100.00
19112;BME280;9688;51.906;8.376;2024-03-06T08:19:17;101322.44;;;9.57;100.00
19112;BME280;9688;51.906;8.376;2024-03-06T08:22:02;101323.25;;;9.61;100.00
19112;BME280;9688;51.906;8.376;2024-03-06T08:24:47;101328.44;;;9.66;100.00
19112;BME280;9688;51.906;8.376;2024-03-06T08:27:36;101334.41;;;9.72;100.00
19112;BME280;9688;51.906;8.376;2024-03-06T08:30:22;101338.75;;;9.75;100.00
19112;BME280;9688;51.906;8.376;2024-03-06T08:33:07;101336.13;;;9.75;100.00
19112;BME280;9688;51.906;8.376;2024-03-06T08:35:52;101348.44;;;9.76;100.00
19112;BME280;9688;51.906;8.376;2024-03-06T08:38:38;101348.28;;;9.82;100.00
19112;BME280;9688;51.906;8.376;2024-03-06T08:41:24;101349.81;;;9.92;100.00
19112;BME280;9688;51.906;8.376;2024-03-06T08:44:12;101346.19;;;9.96;100.00
19112;BME280;9688;51.906;8.376;2024-03-06T08:46:58;101347.88;;;10.00;100.00
19112;BME280;9688;51.906;8.376;2024-03-06T08:49:43;101356.56;;;10.04;100.00
19112;BME280;9688;51.906;8.376;2024-03-06T08:52:30;101364.34;;;10.09;100.00
19112;BME280;9688;51.906;8.376;2024-03-06T08:55:15;101364.41;;;10.07;100.00
19112;BME280;9688;51.906;8.376;2024-03-06T08:58:01;101360.84;;;10.08;100.00
19112;BME280;9688;51.906;8.376;2024-03-06T09:00:47;101371.31;;;10.13;100.00
19112;BME280;9688;51.906;8.376;2024-03-06T09:03:33;101374.72;;;10.18;100.00
19112;BME280;9688;51.906;8.376;2024-03-06T09:06:19;101377.22;;;10.22;100.00
19112;BME280;9688;51.906;8.376;2024-03-06T09:09:05;101372.63;;;10.32;100.00
19112;BME280;9688;51.906;8.376;2024-03-06T09:11:50;101372.44;;;10.40;100.00
19112;BME280;9688;51.906;8.376;2024-03-06T09:14:37;101370.59;;;10.42;100.00
19112;BME280;9688;51.906;8.376;2024-03-06T09:17:24;101382.34;;;10.32;100.00
19112;BME280;9688;51.906;8.376;2024-03-06T09:20:10;101382.38;;;10.30;100.00
19112;BME280;9688;51.906;8.376;2024-03-06T09:22:55;101390.22;;;10.33;100.00
19112;BME280;9688;51.906;8.376;2024-03-06T09:25:40;101389.94;;;10.44;100.00
19112;BME280;9688;51.906;8.376;2024-03-06T09:28:26;101396.03;;;10.47;100.00
19112;BME280;9688;51.906;8.376;2024-03-06T09:31:11;101399.34;;;10.56;100.00
19112;BME280;9688;51.906;8.376;2024-03-06T09:33:58;101394.53;;;10.71;100.00
19112;BME280;9688;51.906;8.376;2024-03-06T09:36:46;101395.25;;;10.78;100.00
19112;BME280;9688;51.906;8.376;2024-03-06T09:39:32;101396.97;;;10.79;100.00
19112;BME280;9688;51.906;8.376;2024-03-06T09:42:18;101409.84;;;10.91;100.00
19112;BME280;9688;51.906;8.376;2024-03-06T09:45:04;101406.97;;;11.01;100.00
19112;BME280;9688;51.906;8.376;2024-03-06T09:47:50;101405.06;;;11.06;100.00
19112;BME280;9688;51.906;8.376;2024-03-06T09:50:39;101403.13;;;11.11;100.00
19112;BME280;9688;51.906;8.376;2024-03-06T09:53:31;101403.03;;;11.14;100.00
19112;BME280;9688;51.906;8.376;2024-03-06T09:56:17;101413.56;;;11.17;100.00
19112;BME280;9688;51.906;8.376;2024-03-06T09:59:03;101415.13;;;11.24;100.00
19112;BME280;9688;51.906;8.376;2024-03-06T10:01:50;101414.94;;;11.30;100.00
19112;BME280;9688;51.906;8.376;2024-03-06T10:04:35;101417.38;;;11.38;100.00
19112;BME280;9688;51.906;8.376;2024-03-06T10:07:22;101415.44;;;11.45;100.00
19112;BME280;9688;51.906;8.376;2024-03-06T10:10:08;101421.53;;;11.47;100.00
19112;BME280;9688;51.906;8.376;2024-03-06T10:12:54;101428.50;;;11.49;100.00
19112;BME280;9688;51.906;8.376;2024-03-06T10:15:41;101424.88;;;11.53;100.00
19112;BME280;9688;51.906;8.376;2024-03-06T10:18:27;101424.09;;;11.50;100.00
19112;BME280;9688;51.906;8.376;2024-03-06T10:21:13;101422.47;;;11.44;100.00
19112;BME280;9688;51.906;8.376;2024-03-06T10:24:03;101420.56;;;11.49;100.00
19112;BME280;9688;51.906;8.376;2024-03-06T10:26:51;101419.53;;;11.55;100.00
19112;BME280;9688;51.906;8.376;2024-03-06T10:29:38;101419.19;;;11.67;100.00
19112;BME280;9688;51.906;8.376;2024-03-06T10:32:26;101430.25;;;11.80;100.00
19112;BME280;9688;51.906;8.376;2024-03-06T10:35:18;101422.75;;;11.94;100.00
19112;BME280;9688;51.906;8.376;2024-03-06T10:38:06;101427.63;;;12.08;100.00
19112;BME280;9688;51.906;8.376;2024-03-06T10:40:54;101438.00;;;12.16;100.00
19112;BME280;9688;51.906;8.376;2024-03-06T10:43:43;101434.97;;;12.28;100.00
19112;BME280;9688;51.906;8.376;2024-03-06T10:46:33;101440.81;;;12.38;100.00
19112;BME280;9688;51.906;8.376;2024-03-06T10:49:21;101438.06;;;12.41;100.00
19112;BME280;9688;51.906;8.376;2024-03-06T10:52:07;101438.84;;;12.44;100.00
19112;BME280;9688;51.906;8.376;2024-03-06T10:54:55;101438.66;;;12.50;100.00
19112;BME280;9688;51.906;8.376;2024-03-06T10:57:46;101437.78;;;12.50;100.00
19112;BME280;9688;51.906;8.376;2024-03-06T11:00:38;101445.91;;;12.44;100.00
19112;BME280;9688;51.906;8.376;2024-03-06T11:03:24;101439.84;;;12.40;100.00
19112;BME280;9688;51.906;8.376;2024-03-06T11:06:11;101445.41;;;12.33;100.00
19112;BME280;9688;51.906;8.376;2024-03-06T11:08:56;101452.84;;;12.21;100.00
19112;BME280;9688;51.906;8.376;2024-03-06T11:11:47;101454.06;;;12.11;100.00
19112;BME280;9688;51.906;8.376;2024-03-06T11:14:36;101452.72;;;11.98;100.00
19112;BME280;9688;51.906;8.376;2024-03-06T11:17:25;101461.06;;;11.82;100.00
19112;BME280;9688;51.906;8.376;2024-03-06T11:20:17;101460.31;;;11.79;100.00
19112;BME280;9688;51.906;8.376;2024-03-06T11:23:07;101462.03;;;11.80;100.00
19112;BME280;9688;51.906;8.376;2024-03-06T11:26:05;101460.50;;;11.73;100.00
19112;BME280;9688;51.906;8.376;2024-03-06T11:28:53;101462.19;;;11.75;100.00
19112;BME280;9688;51.906;8.376;2024-03-06T11:34:33;101466.56;;;11.76;100.00
19112;BME280;9688;51.906;8.376;2024-03-06T11:37:20;101472.06;;;11.70;100.00
19112;BME280;9688;51.906;8.376;2024-03-06T11:40:09;101474.91;;;11.63;100.00
19112;BME280;9688;51.906;8.376;2024-03-06T11:43:24;101476.78;;;11.59;100.00
19112;BME280;9688;51.906;8.376;2024-03-06T11:46:10;101477.53;;;11.64;100.00
19112;BME280;9688;51.906;8.376;2024-03-06T11:48:56;101481.13;;;11.61;100.00
19112;BME280;9688;51.906;8.376;2024-03-06T11:51:44;101477.75;;;11.56;100.00
19112;BME280;9688;51.906;8.376;2024-03-06T11:54:55;101476.16;;;11.51;100.00
19112;BME280;9688;51.906;8.376;2024-03-06T11:57:40;101479.75;;;11.48;100.00
19112;BME280;9688;51.906;8.376;2024-03-06T12:00:26;101482.41;;;11.47;100.00
19112;BME280;9688;51.906;8.376;2024-03-06T12:03:12;101482.56;;;11.42;100.00
19112;BME280;9688;51.906;8.376;2024-03-06T12:05:57;101478.31;;;11.36;100.00
19112;BME280;9688;51.906;8.376;2024-03-06T12:08:45;101480.16;;;11.33;100.00
19112;BME280;9688;51.906;8.376;2024-03-06T12:11:30;101492.53;;;11.32;100.00
19112;BME280;9688;51.906;8.376;2024-03-06T12:14:17;101486.56;;;11.26;100.00
19112;BME280;9688;51.906;8.376;2024-03-06T12:17:03;101492.06;;;11.16;100.00
19112;BME280;9688;51.906;8.376;2024-03-06T12:19:50;101490.78;;;10.99;100.00
19112;BME280;9688;51.906;8.376;2024-03-06T12:22:43;101493.81;;;10.83;100.00
19112;BME280;9688;51.906;8.376;2024-03-06T12:25:30;101493.28;;;10.70;100.00
19112;BME280;9688;51.906;8.376;2024-03-06T12:28:16;101495.16;;;10.65;100.00
19112;BME280;9688;51.906;8.376;2024-03-06T12:31:02;101492.63;;;10.61;100.00
19112;BME280;9688;51.906;8.376;2024-03-06T12:33:56;101493.72;;;10.52;100.00
19112;BME280;9688;51.906;8.376;2024-03-06T12:36:42;101496.53;;;10.44;100.00
19112;BME280;9688;51.906;8.376;2024-03-06T12:39:31;101496.63;;;10.41;100.00
19112;BME280;9688;51.906;8.376;2024-03-06T12:42:18;101494.13;;;10.35;100.00
19112;BME280;9688;51.906;8.376;2024-03-06T12:45:04;101495.91;;;10.35;100.00
19112;BME280;9688;51.906;8.376;2024-03-06T12:47:51;101498.50;;;10.36;100.00
19112;BME280;9688;51.906;8.376;2024-03-06T12:50:36;101498.41;;;10.41;100.00
19112;BME280;9688;51.906;8.376;2024-03-06T12:53:21;101487.66;;;10.47;100.00
19112;BME280;9688;51.906;8.376;2024-03-06T12:56:07;101490.22;;;10.52;100.00
19112;BME280;9688;51.906;8.376;2024-03-06T12:58:55;101487.47;;;10.56;100.00
19112;BME280;9688;51.906;8.376;2024-03-06T13:01:40;101492.53;;;10.65;100.00
19112;BME280;9688;51.906;8.376;2024-03-06T13:04:26;101491.47;;;10.73;100.00
19112;BME280;9688;51.906;8.376;2024-03-06T13:07:11;101484.25;;;10.79;100.00
19112;BME280;9688;51.906;8.376;2024-03-06T13:09:56;101491.78;;;10.94;100.00
19112;BME280;9688;51.906;8.376;2024-03-06T13:12:41;101488.84;;;11.05;100.00
19112;BME280;9688;51.906;8.376;2024-03-06T13:15:28;101482.44;;;11.14;100.00
19112;BME280;9688;51.906;8.376;2024-03-06T13:18:13;101492.06;;;11.16;100.00
19112;BME280;9688;51.906;8.376;2024-03-06T13:20:59;101493.47;;;11.31;100.00
19112;BME280;9688;51.906;8.376;2024-03-06T13:23:46;101493.38;;;11.34;100.00
19112;BME280;9688;51.906;8.376;2024-03-06T13:26:31;101495.94;;;11.36;100.00
19112;BME280;9688;51.906;8.376;2024-03-06T13:29:16;101492.34;;;11.40;100.00
19112;BME280;9688;51.906;8.376;2024-03-06T13:32:04;101496.53;;;11.47;100.00
19112;BME280;9688;51.906;8.376;2024-03-06T13:34:50;101501.81;;;11.47;100.00
19112;BME280;9688;51.906;8.376;2024-03-06T13:37:35;101498.38;;;11.45;100.00
19112;BME280;9688;51.906;8.376;2024-03-06T13:40:20;101506.50;;;11.37;100.00
19112;BME280;9688;51.906;8.376;2024-03-06T13:43:05;101508.47;;;11.31;100.00
19112;BME280;9688;51.906;8.376;2024-03-06T13:45:52;101501.34;;;11.33;100.00
19112;BME280;9688;51.906;8.376;2024-03-06T13:48:39;101498.31;;;11.47;100.00
19112;BME280;9688;51.906;8.376;2024-03-06T13:51:26;101507.84;;;11.54;100.00
19112;BME280;9688;51.906;8.376;2024-03-06T13:54:11;101507.00;;;11.52;100.00
19112;BME280;9688;51.906;8.376;2024-03-06T13:56:58;101507.00;;;11.52;100.00
19112;BME280;9688;51.906;8.376;2024-03-06T13:59:45;101514.94;;;11.52;100.00
19112;BME280;9688;51.906;8.376;2024-03-06T14:02:31;101509.47;;;11.58;100.00
19112;BME280;9688;51.906;8.376;2024-03-06T14:05:18;101505.00;;;11.60;100.00
19112;BME280;9688;51.906;8.376;2024-03-06T14:08:08;101505.00;;;11.60;100.00
19112;BME280;9688;51.906;8.376;2024-03-06T14:10:56;101508.38;;;11.65;100.00
19112;BME280;9688;51.906;8.376;2024-03-06T14:13:41;101510.34;;;11.58;100.00
19112;BME280;9688;51.906;8.376;2024-03-06T14:16:26;101506.00;;;11.56;100.00
19112;BME280;9688;51.906;8.376;2024-03-06T14:19:12;101506.03;;;11.54;100.00
19112;BME280;9688;51.906;8.376;2024-03-06T14:21:59;101499.88;;;11.54;100.00
19112;BME280;9688;51.906;8.376;2024-03-06T14:24:45;101515.69;;;11.57;100.00
19112;BME280;9688;51.906;8.376;2024-03-06T14:27:31;101513.91;;;11.57;100.00
19112;BME280;9688;51.906;8.376;2024-03-06T14:30:16;101518.50;;;11.51;100.00
19112;BME280;9688;51.906;8.376;2024-03-06T14:33:04;101517.94;;;11.39;100.00
19112;BME280;9688;51.906;8.376;2024-03-06T14:35:49;101519.72;;;11.39;100.00
19112;BME280;9688;51.906;8.376;2024-03-06T14:38:36;101513.53;;;11.38;100.00
19112;BME280;9688;51.906;8.376;2024-03-06T14:41:21;101521.56;;;11.35;100.00
19112;BME280;9688;51.906;8.376;2024-03-06T14:44:07;101518.22;;;11.29;100.00
19112;BME280;9688;51.906;8.376;2024-03-06T14:46:52;101517.31;;;11.30;100.00